Time;durP1;ratioP1;P1;durP2;ratioP2;P2;SDS_P1;SDS_P2;PMS_P1;PMS_P2;Temp;Humidity;BMP_temperature;BMP_pressure;BME280_temperature;BME280_humidity;BME280_pressure;Samples;Min_cycle;Max_cycle;Signal;HPM_P1;HPM_P2
2022/08/01 00:00:03;;;;;;;2.75;2.40;;;;;;;;;;5043603;28;20730;-68
2022/08/01 00:02:30;;;;;;;2.38;2.17;;;;;;;;;;5042905;28;20056;-68
2022/08/01 00:04:56;;;;;;;2.55;2.20;;;;;;;;;;5042990;28;21186;-68
2022/08/01 00:07:22;;;;;;;2.40;2.03;;;;;;;;;;5042411;28;20059;-68
2022/08/01 00:09:48;;;;;;;6.60;2.38;;;;;;;;;;5043527;28;20037;-68
2022/08/01 00:12:13;;;;;;;2.60;2.22;;;;;;;;;;5042669;28;20060;-67
2022/08/01 00:14:39;;;;;;;2.42;2.15;;;;;;;;;;5024764;28;20052;-69
2022/08/01 00:17:04;;;;;;;3.83;2.35;;;;;;;;;;5043077;28;20071;-68
2022/08/01 00:19:30;;;;;;;4.50;2.00;;;;;;;;;;5042763;28;20403;-68
2022/08/01 00:21:55;;;;;;;5.85;2.22;;;;;;;;;;5042632;28;20626;-68
2022/08/01 00:24:20;;;;;;;4.22;2.20;;;;;;;;;;5043106;28;20052;-67
2022/08/01 00:26:46;;;;;;;4.28;2.50;;;;;;;;;;5042106;28;20051;-68
2022/08/01 00:29:11;;;;;;;2.97;2.20;;;;;;;;;;5024845;28;20384;-68
2022/08/01 00:31:37;;;;;;;4.70;2.03;;;;;;;;;;5042337;28;20041;-68
2022/08/01 00:34:02;;;;;;;2.45;1.98;;;;;;;;;;5042987;28;20895;-68
2022/08/01 00:36:27;;;;;;;5.00;1.92;;;;;;;;;;5042707;28;20056;-68
2022/08/01 00:38:53;;;;;;;2.50;1.77;;;;;;;;;;5042396;28;20052;-67
2022/08/01 00:41:18;;;;;;;2.92;1.80;;;;;;;;;;5040129;28;20148;-68
2022/08/01 00:43:44;;;;;;;4.30;1.80;;;;;;;;;;5042653;28;20063;-68
2022/08/01 00:46:09;;;;;;;2.65;1.67;;;;;;;;;;5042501;28;20052;-68
2022/08/01 00:48:35;;;;;;;1.98;1.45;;;;;;;;;;5042720;28;20056;-68
2022/08/01 00:51:03;;;;;;;1.70;1.60;;;;;;;;;;5040908;28;20060;-68
2022/08/01 00:53:29;;;;;;;1.83;1.50;;;;;;;;;;5041964;28;20055;-68
2022/08/01 00:55:54;;;;;;;1.98;1.55;;;;;;;;;;5042773;28;20052;-68
2022/08/01 00:58:20;;;;;;;3.15;1.70;;;;;;;;;;5042302;28;20388;-68
2022/08/01 01:00:45;;;;;;;3.97;2.28;;;;;;;;;;5041619;28;20037;-68
2022/08/01 01:03:11;;;;;;;2.63;1.50;;;;;;;;;;5041136;28;20037;-68
2022/08/01 01:06:03;;;;;;;3.10;1.52;;;;;;;;;;5042227;28;20453;-67
2022/08/01 01:08:36;;;;;;;1.90;1.70;;;;;;;;;;5041758;28;21002;-67
2022/08/01 01:11:08;;;;;;;1.60;1.50;;;;;;;;;;5041493;28;20056;-67
2022/08/01 01:13:49;;;;;;;2.35;1.75;;;;;;;;;;5041012;28;20098;-68
2022/08/01 01:16:18;;;;;;;1.70;1.60;;;;;;;;;;5042039;28;20037;-68
2022/08/01 01:18:53;;;;;;;2.08;1.65;;;;;;;;;;5023595;28;20037;-68
2022/08/01 01:21:18;;;;;;;4.00;1.80;;;;;;;;;;5041624;28;20041;-67
2022/08/01 01:24:17;;;;;;;1.90;1.70;;;;;;;;;;5041240;28;20063;-69
2022/08/01 01:26:45;;;;;;;4.93;1.88;;;;;;;;;;5041264;28;20056;-67
2022/08/01 01:29:21;;;;;;;1.85;1.73;;;;;;;;;;5041973;28;20064;-67
2022/08/01 01:32:05;;;;;;;2.40;1.90;;;;;;;;;;5041398;28;20583;-68
2022/08/01 01:34:35;;;;;;;2.20;1.60;;;;;;;;;;5023255;28;20052;-67
2022/08/01 01:37:04;;;;;;;2.45;1.85;;;;;;;;;;5041054;28;20048;-67
2022/08/01 01:39:32;;;;;;;3.00;1.88;;;;;;;;;;5041724;28;20049;-68
2022/08/01 01:41:59;;;;;;;5.05;1.70;;;;;;;;;;5037290;28;20487;-67
2022/08/01 01:44:27;;;;;;;1.80;1.70;;;;;;;;;;5041007;28;20064;-67
2022/08/01 01:46:53;;;;;;;1.85;1.70;;;;;;;;;;5039877;28;20059;-68
2022/08/01 01:49:25;;;;;;;3.67;1.65;;;;;;;;;;5025786;28;20953;-68
2022/08/01 01:51:53;;;;;;;4.97;1.50;;;;;;;;;;5040993;28;20045;-67
2022/08/01 01:54:20;;;;;;;1.75;1.60;;;;;;;;;;5041286;28;20069;-68
2022/08/01 01:56:49;;;;;;;1.70;1.60;;;;;;;;;;5039713;28;20048;-67
2022/08/01 01:59:26;;;;;;;1.65;1.55;;;;;;;;;;5040860;28;20525;-68
2022/08/01 02:01:55;;;;;;;2.13;1.52;;;;;;;;;;5040814;28;20048;-66
2022/08/01 02:04:22;;;;;;;2.92;1.77;;;;;;;;;;5041264;28;20140;-67
2022/08/01 02:06:50;;;;;;;6.97;1.90;;;;;;;;;;5040663;28;20064;-68
2022/08/01 02:09:20;;;;;;;4.50;1.70;;;;;;;;;;5039844;28;20060;-67
2022/08/01 02:11:50;;;;;;;2.83;1.98;;;;;;;;;;5040516;28;20063;-67
2022/08/01 02:14:18;;;;;;;3.45;1.90;;;;;;;;;;5040679;28;20418;-68
2022/08/01 02:16:47;;;;;;;4.28;2.00;;;;;;;;;;5040334;28;20041;-68
2022/08/01 02:19:14;;;;;;;3.08;1.90;;;;;;;;;;5039908;28;20068;-67
2022/08/01 02:22:04;;;;;;;3.47;1.80;;;;;;;;;;5040204;28;20139;-67
2022/08/01 02:25:07;;;;;;;3.40;1.65;;;;;;;;;;5040778;28;20698;-68
2022/08/01 02:28:10;;;;;;;3.72;1.70;;;;;;;;;;5024750;28;20056;-67
2022/08/01 02:30:38;;;;;;;2.55;1.70;;;;;;;;;;4987878;28;20131;-68
2022/08/01 02:33:20;;;;;;;2.17;1.90;;;;;;;;;;5040104;28;20174;-67
2022/08/01 02:35:53;;;;;;;2.03;1.92;;;;;;;;;;5040473;28;20037;-68
2022/08/01 02:38:23;;;;;;;2.22;1.80;;;;;;;;;;5040140;28;20048;-67
2022/08/01 02:40:52;;;;;;;3.38;1.80;;;;;;;;;;5038836;28;20051;-68
2022/08/01 02:43:21;;;;;;;3.20;1.90;;;;;;;;;;5039767;28;20077;-66
2022/08/01 02:45:52;;;;;;;3.10;1.95;;;;;;;;;;5040282;28;20822;-67
2022/08/01 02:48:19;;;;;;;1.83;1.65;;;;;;;;;;5040409;28;20159;-66
2022/08/01 02:50:48;;;;;;;3.80;1.77;;;;;;;;;;5039614;28;20864;-68
2022/08/01 02:53:16;;;;;;;2.08;1.80;;;;;;;;;;5038763;28;20119;-67
2022/08/01 02:55:44;;;;;;;2.00;1.90;;;;;;;;;;5039819;28;20123;-67
2022/08/01 02:58:13;;;;;;;3.40;1.80;;;;;;;;;;5040052;28;20076;-67
2022/08/01 03:00:40;;;;;;;2.10;1.90;;;;;;;;;;5038896;28;20151;-67
2022/08/01 03:03:07;;;;;;;1.90;1.80;;;;;;;;;;5038476;28;20059;-67
2022/08/01 03:05:33;;;;;;;3.63;1.90;;;;;;;;;;5039029;28;20056;-67
2022/08/01 03:08:00;;;;;;;2.45;1.73;;;;;;;;;;5040059;28;20060;-68
2022/08/01 03:10:28;;;;;;;5.75;1.70;;;;;;;;;;5040086;28;20049;-68
2022/08/01 03:12:54;;;;;;;5.43;1.90;;;;;;;;;;5037842;28;20079;-67
2022/08/01 03:15:22;;;;;;;2.47;1.98;;;;;;;;;;5038392;28;20414;-66
2022/08/01 03:17:49;;;;;;;4.70;2.05;;;;;;;;;;5040251;28;20099;-67
2022/08/01 03:20:17;;;;;;;2.50;1.70;;;;;;;;;;5039924;28;20076;-66
2022/08/01 03:22:45;;;;;;;2.75;1.90;;;;;;;;;;5039041;28;20214;-67
2022/08/01 03:25:13;;;;;;;3.63;1.90;;;;;;;;;;5040826;28;20164;-69
2022/08/01 03:27:41;;;;;;;1.65;1.55;;;;;;;;;;5022124;28;20415;-68
2022/08/01 03:30:07;;;;;;;1.70;1.50;;;;;;;;;;5039833;28;20064;-68
2022/08/01 03:32:33;;;;;;;2.40;1.88;;;;;;;;;;5039096;28;20084;-68
2022/08/01 03:34:59;;;;;;;3.47;2.05;;;;;;;;;;5020965;28;20464;-68
2022/08/01 03:37:41;;;;;;;2.00;1.80;;;;;;;;;;5037857;28;20056;-68
2022/08/01 03:40:13;;;;;;;2.22;1.50;;;;;;;;;;5039410;28;20063;-69
2022/08/01 03:42:45;;;;;;;2.65;1.80;;;;;;;;;;5035336;28;20044;-68
2022/08/01 03:45:19;;;;;;;2.75;1.80;;;;;;;;;;5038908;28;20057;-68
2022/08/01 03:47:47;;;;;;;1.85;1.70;;;;;;;;;;5037740;28;20051;-68
2022/08/01 03:50:16;;;;;;;2.67;1.85;;;;;;;;;;5036467;28;20052;-68
2022/08/01 03:52:43;;;;;;;2.10;1.90;;;;;;;;;;5037385;28;20045;-68
2022/08/01 03:55:11;;;;;;;2.25;1.95;;;;;;;;;;5039288;28;20049;-68
2022/08/01 03:57:37;;;;;;;2.00;1.75;;;;;;;;;;5037930;28;20136;-68
2022/08/01 04:00:07;;;;;;;2.20;1.83;;;;;;;;;;5038708;28;20111;-69
2022/08/01 04:02:38;;;;;;;2.28;2.08;;;;;;;;;;5038391;28;20131;-71
2022/08/01 04:05:04;;;;;;;2.25;1.75;;;;;;;;;;5039078;28;20550;-71
2022/08/01 04:07:32;;;;;;;3.85;1.80;;;;;;;;;;5039152;28;20041;-68
2022/08/01 04:09:58;;;;;;;3.03;1.92;;;;;;;;;;5038052;28;20464;-69
2022/08/01 04:12:24;;;;;;;1.67;1.58;;;;;;;;;;5038069;28;20056;-69
2022/08/01 04:14:49;;;;;;;2.30;1.80;;;;;;;;;;5038824;28;20045;-69
2022/08/01 04:17:16;;;;;;;1.90;1.80;;;;;;;;;;5042578;28;20415;-68
2022/08/01 04:19:42;;;;;;;2.40;1.42;;;;;;;;;;5041449;28;20049;-69
2022/08/01 04:22:09;;;;;;;1.92;1.58;;;;;;;;;;5014097;28;20045;-69
2022/08/01 04:24:36;;;;;;;2.03;1.60;;;;;;;;;;5042404;28;20040;-69
2022/08/01 04:27:05;;;;;;;1.85;1.50;;;;;;;;;;5041606;28;20048;-69
2022/08/01 04:29:32;;;;;;;2.72;1.60;;;;;;;;;;5041847;28;20051;-68
2022/08/01 04:32:00;;;;;;;4.97;1.98;;;;;;;;;;5040947;28;20091;-69
2022/08/01 04:34:29;;;;;;;1.45;1.35;;;;;;;;;;5041930;28;20100;-69
2022/08/01 04:36:56;;;;;;;3.15;1.75;;;;;;;;;;5041306;28;20068;-69
2022/08/01 04:39:27;;;;;;;3.55;1.40;;;;;;;;;;5041976;28;20041;-68
2022/08/01 04:41:56;;;;;;;4.63;1.90;;;;;;;;;;5040872;28;20384;-69
2022/08/01 04:44:23;;;;;;;1.80;1.67;;;;;;;;;;5042017;28;20076;-70
2022/08/01 04:46:50;;;;;;;1.80;1.70;;;;;;;;;;5041455;28;20044;-70
2022/08/01 04:49:16;;;;;;;2.53;1.95;;;;;;;;;;5029721;28;20144;-71
2022/08/01 04:51:57;;;;;;;3.50;1.90;;;;;;;;;;5041697;28;20053;-71
2022/08/01 04:54:33;;;;;;;4.15;1.90;;;;;;;;;;5040950;28;20056;-70
2022/08/01 04:56:59;;;;;;;2.03;1.50;;;;;;;;;;5041703;28;20152;-69
2022/08/01 04:59:41;;;;;;;4.28;1.88;;;;;;;;;;5022693;28;20143;-69
2022/08/01 05:02:15;;;;;;;;;;;;;;;;;;5041919;28;20815;-69
2022/08/01 05:04:42;;;;;;;3.38;1.98;;;;;;;;;;5040667;28;19931;-70
2022/08/01 05:07:08;;;;;;;2.05;1.75;;;;;;;;;;5042023;28;20057;-69
2022/08/01 05:09:35;;;;;;;3.30;1.58;;;;;;;;;;5041718;28;20543;-69
2022/08/01 05:12:03;;;;;;;2.03;1.60;;;;;;;;;;5023350;28;20093;-69
2022/08/01 05:14:33;;;;;;;4.30;1.70;;;;;;;;;;5041911;28;20130;-69
2022/08/01 05:16:59;;;;;;;1.92;1.80;;;;;;;;;;5039434;28;20059;-69
2022/08/01 05:19:26;;;;;;;2.70;1.60;;;;;;;;;;5027064;28;20060;-69
2022/08/01 05:21:52;;;;;;;1.80;1.70;;;;;;;;;;5040754;28;20068;-68
2022/08/01 05:24:18;;;;;;;1.88;1.65;;;;;;;;;;5040963;28;20131;-69
2022/08/01 05:26:43;;;;;;;2.10;1.90;;;;;;;;;;5038818;28;20649;-68
2022/08/01 05:29:09;;;;;;;4.20;1.70;;;;;;;;;;5040354;28;20566;-69
2022/08/01 05:31:34;;;;;;;3.38;1.83;;;;;;;;;;5040832;28;20045;-66
2022/08/01 05:34:01;;;;;;;2.97;1.80;;;;;;;;;;5040796;28;20049;-70
2022/08/01 05:36:27;;;;;;;2.72;1.60;;;;;;;;;;5040116;28;20057;-69
2022/08/01 05:38:52;;;;;;;3.05;1.70;;;;;;;;;;5040681;28;20079;-66
2022/08/01 05:41:18;;;;;;;1.98;1.60;;;;;;;;;;5039510;28;20060;-67
2022/08/01 05:43:43;;;;;;;2.72;1.73;;;;;;;;;;5023156;28;20051;-66
2022/08/01 05:46:09;;;;;;;5.85;1.92;;;;;;;;;;5041264;28;20109;-67
2022/08/01 05:48:34;;;;;;;1.55;1.45;;;;;;;;;;5040270;28;20468;-66
2022/08/01 05:50:59;;;;;;;3.28;1.42;;;;;;;;;;5020891;28;20072;-67
2022/08/01 05:53:26;;;;;;;4.70;1.70;;;;;;;;;;5040916;28;20075;-69
2022/08/01 05:55:51;;;;;;;4.38;1.75;;;;;;;;;;5040916;28;20057;-69
2022/08/01 05:58:17;;;;;;;2.20;1.73;;;;;;;;;;5022485;28;20140;-68
2022/08/01 06:00:42;;;;;;;2.53;1.80;;;;;;;;;;5040282;28;20040;-68
2022/08/01 06:03:08;;;;;;;2.88;2.00;;;;;;;;;;5040288;28;20053;-70
2022/08/01 06:05:33;;;;;;;2.35;1.70;;;;;;;;;;5040585;28;20110;-67
2022/08/01 06:07:58;;;;;;;3.95;1.80;;;;;;;;;;5040967;28;20202;-71
2022/08/01 06:10:24;;;;;;;3.08;1.92;;;;;;;;;;5021729;28;20465;-66
2022/08/01 06:12:49;;;;;;;3.70;1.80;;;;;;;;;;5039334;28;20041;-69
2022/08/01 06:15:15;;;;;;;2.35;1.48;;;;;;;;;;5040316;28;20487;-67
2022/08/01 06:17:41;;;;;;;2.22;2.00;;;;;;;;;;5040712;28;20071;-68
2022/08/01 06:20:07;;;;;;;4.15;1.65;;;;;;;;;;5039736;28;20132;-70
2022/08/01 06:22:33;;;;;;;1.65;1.55;;;;;;;;;;5040093;28;20041;-68
2022/08/01 06:24:58;;;;;;;3.03;2.05;;;;;;;;;;5039509;28;20106;-70
2022/08/01 06:27:27;;;;;;;3.40;1.63;;;;;;;;;;5022342;28;20045;-68
2022/08/01 06:29:56;;;;;;;1.60;1.48;;;;;;;;;;5040245;28;20128;-69
2022/08/01 06:32:22;;;;;;;3.83;2.05;;;;;;;;;;5037399;28;20052;-68
2022/08/01 06:34:48;;;;;;;4.72;1.92;;;;;;;;;;5038274;28;20115;-70
2022/08/01 06:37:14;;;;;;;2.15;1.92;;;;;;;;;;5039210;28;21211;-70
2022/08/01 06:39:40;;;;;;;1.50;1.40;;;;;;;;;;5039155;28;20048;-70
2022/08/01 06:42:05;;;;;;;2.40;1.73;;;;;;;;;;5038531;28;20049;-68
2022/08/01 06:44:31;;;;;;;1.95;1.65;;;;;;;;;;5030020;28;20040;-67
2022/08/01 06:46:58;;;;;;;1.80;1.60;;;;;;;;;;5037938;28;20053;-68
2022/08/01 06:49:24;;;;;;;2.85;1.65;;;;;;;;;;5038921;28;20045;-67
2022/08/01 06:51:50;;;;;;;2.97;1.92;;;;;;;;;;5015155;28;20570;-69
2022/08/01 06:54:16;;;;;;;2.15;1.75;;;;;;;;;;5037896;28;20131;-68
2022/08/01 06:56:42;;;;;;;1.95;1.80;;;;;;;;;;5038499;28;20076;-68
2022/08/01 06:59:08;;;;;;;1.90;1.80;;;;;;;;;;5021058;28;20076;-69
2022/08/01 07:01:34;;;;;;;3.33;1.60;;;;;;;;;;5004464;28;20045;-70
2022/08/01 07:03:59;;;;;;;3.80;2.05;;;;;;;;;;5039003;28;20493;-67
2022/08/01 07:06:25;;;;;;;5.03;1.73;;;;;;;;;;5037326;28;20114;-68
2022/08/01 07:08:52;;;;;;;5.93;1.80;;;;;;;;;;5038256;28;20049;-68
2022/08/01 07:11:18;;;;;;;3.40;1.70;;;;;;;;;;5037764;28;20052;-70
2022/08/01 07:13:45;;;;;;;2.13;1.88;;;;;;;;;;5037983;28;20124;-70
2022/08/01 07:16:14;;;;;;;2.20;1.70;;;;;;;;;;5037555;28;20072;-69
2022/08/01 07:18:41;;;;;;;4.28;1.80;;;;;;;;;;5037910;28;20036;-68
2022/08/01 07:21:06;;;;;;;5.25;1.73;;;;;;;;;;5020701;28;20784;-67
2022/08/01 07:23:32;;;;;;;2.20;1.80;;;;;;;;;;5039658;28;20060;-68
2022/08/01 07:25:58;;;;;;;3.17;1.63;;;;;;;;;;5038543;28;20049;-69
2022/08/01 07:28:24;;;;;;;1.67;1.58;;;;;;;;;;5037923;28;20041;-68
2022/08/01 07:30:52;;;;;;;2.88;1.77;;;;;;;;;;5038681;28;20560;-70
2022/08/01 07:33:18;;;;;;;3.17;1.75;;;;;;;;;;5037858;28;20056;-68
2022/08/01 07:35:43;;;;;;;2.40;1.80;;;;;;;;;;5015028;28;20041;-70
2022/08/01 07:38:09;;;;;;;1.98;1.75;;;;;;;;;;5037710;28;20558;-68
2022/08/01 07:40:35;;;;;;;5.55;1.70;;;;;;;;;;5038469;28;20036;-68
2022/08/01 07:43:01;;;;;;;1.75;1.40;;;;;;;;;;5037638;28;20049;-70
2022/08/01 07:45:26;;;;;;;1.83;1.58;;;;;;;;;;5036601;28;20064;-68
2022/08/01 07:47:52;;;;;;;11.68;1.90;;;;;;;;;;5038160;28;20086;-69
2022/08/01 07:50:18;;;;;;;3.00;1.88;;;;;;;;;;5019909;28;20053;-68
2022/08/01 07:52:44;;;;;;;5.53;1.80;;;;;;;;;;5041935;28;20739;-67
2022/08/01 07:55:11;;;;;;;5.55;1.90;;;;;;;;;;5042694;28;20045;-70
2022/08/01 07:57:37;;;;;;;1.80;1.58;;;;;;;;;;5042191;28;20102;-70
2022/08/01 08:00:05;;;;;;;3.85;1.80;;;;;;;;;;5023602;28;20041;-70
2022/08/01 08:02:31;;;;;;;3.95;1.90;;;;;;;;;;5041722;28;20049;-69
2022/08/01 08:04:56;;;;;;;8.52;2.00;;;;;;;;;;5024538;28;20041;-72
2022/08/01 08:07:22;;;;;;;3.17;1.90;;;;;;;;;;5023927;28;20040;-69
2022/08/01 08:09:48;;;;;;;3.03;2.05;;;;;;;;;;5042329;28;20152;-68
2022/08/01 08:12:13;;;;;;;2.13;1.85;;;;;;;;;;5015966;28;20124;-68
2022/08/01 08:14:39;;;;;;;1.83;1.73;;;;;;;;;;5042333;28;20053;-70
2022/08/01 08:17:05;;;;;;;4.03;1.92;;;;;;;;;;5036381;28;20513;-68
2022/08/01 08:19:33;;;;;;;5.60;1.83;;;;;;;;;;5024028;28;20448;-69
2022/08/01 08:21:59;;;;;;;4.30;2.13;;;;;;;;;;5040880;28;20048;-69
2022/08/01 08:24:26;;;;;;;5.43;2.00;;;;;;;;;;5042699;28;20048;-67
2022/08/01 08:26:57;;;;;;;3.92;1.73;;;;;;;;;;5041967;28;20158;-70
2022/08/01 08:29:23;;;;;;;1.98;1.88;;;;;;;;;;5025274;28;20082;-72
2022/08/01 08:31:50;;;;;;;3.22;1.88;;;;;;;;;;5044298;28;20044;-68
2022/08/01 08:34:16;;;;;;;1.98;1.80;;;;;;;;;;5044529;28;20602;-71
2022/08/01 08:36:41;;;;;;;1.65;1.55;;;;;;;;;;5045412;28;20136;-71
2022/08/01 08:39:07;;;;;;;2.00;1.88;;;;;;;;;;5046628;28;20048;-69
2022/08/01 08:41:33;;;;;;;5.07;1.88;;;;;;;;;;5045817;28;20971;-69
2022/08/01 08:44:01;;;;;;;5.13;1.85;;;;;;;;;;5044398;28;20157;-68
2022/08/01 08:46:27;;;;;;;2.85;1.77;;;;;;;;;;5044455;28;20041;-69
2022/08/01 08:48:54;;;;;;;3.25;2.10;;;;;;;;;;5044796;28;20053;-71
2022/08/01 08:51:22;;;;;;;3.28;1.80;;;;;;;;;;5044536;28;20053;-68
2022/08/01 08:53:48;;;;;;;2.88;1.70;;;;;;;;;;5044441;28;20517;-68
2022/08/01 08:56:14;;;;;;;2.50;1.70;;;;;;;;;;5043674;28;20080;-71
2022/08/01 08:58:43;;;;;;;3.55;2.00;;;;;;;;;;5036203;28;20125;-68
2022/08/01 09:01:09;;;;;;;3.75;1.77;;;;;;;;;;5041779;28;20048;-72
2022/08/01 09:03:36;;;;;;;3.72;1.88;;;;;;;;;;5041510;28;20852;-68
2022/08/01 09:06:02;;;;;;;2.97;1.52;;;;;;;;;;5030189;28;20045;-68
2022/08/01 09:08:28;;;;;;;1.90;1.80;;;;;;;;;;5024008;28;20445;-68
2022/08/01 09:10:53;;;;;;;4.20;1.95;;;;;;;;;;5041625;28;20594;-68
2022/08/01 09:13:18;;;;;;;2.30;1.77;;;;;;;;;;5042424;28;20049;-69
2022/08/01 09:15:53;;;;;;;3.70;1.80;;;;;;;;;;5043276;28;20171;-68
2022/08/01 09:18:28;;;;;;;2.63;1.80;;;;;;;;;;5042294;28;20037;-69
2022/08/01 09:21:06;;;;;;;1.95;1.73;;;;;;;;;;5041758;28;20076;-70
2022/08/01 09:23:39;;;;;;;1.55;1.45;;;;;;;;;;5042110;28;20056;-68
2022/08/01 09:26:06;;;;;;;1.98;1.77;;;;;;;;;;5041976;28;20048;-70
2022/08/01 09:28:32;;;;;;;1.67;1.50;;;;;;;;;;5042128;28;20029;-68
2022/08/01 09:30:58;;;;;;;6.22;1.90;;;;;;;;;;5040796;28;20060;-68
2022/08/01 09:33:23;;;;;;;2.15;1.50;;;;;;;;;;5042162;28;21005;-69
2022/08/01 09:35:57;;;;;;;3.58;1.55;;;;;;;;;;5023400;28;20450;-68
2022/08/01 09:38:28;;;;;;;5.40;1.58;;;;;;;;;;5041235;28;20495;-68
2022/08/01 09:40:56;;;;;;;2.13;1.35;;;;;;;;;;5041858;28;20076;-70
2022/08/01 09:43:24;;;;;;;3.47;1.63;;;;;;;;;;5042459;28;20067;-67
2022/08/01 09:45:50;;;;;;;4.00;1.50;;;;;;;;;;5016247;28;20124;-67
2022/08/01 09:48:15;;;;;;;3.33;1.50;;;;;;;;;;5042411;28;20151;-67
2022/08/01 09:50:43;;;;;;;2.70;1.30;;;;;;;;;;5040837;28;20406;-68
2022/08/01 09:53:10;;;;;;;1.20;1.10;;;;;;;;;;5042199;28;20151;-70
2022/08/01 09:55:37;;;;;;;5.20;1.38;;;;;;;;;;5042032;28;20040;-71
2022/08/01 09:58:04;;;;;;;1.42;1.00;;;;;;;;;;5041876;28;20754;-68
2022/08/01 10:00:30;;;;;;;2.95;1.38;;;;;;;;;;5040459;28;20159;-68
2022/08/01 10:02:55;;;;;;;3.33;1.30;;;;;;;;;;5040674;28;20057;-71
2022/08/01 10:05:32;;;;;;;4.70;1.58;;;;;;;;;;5019936;28;20057;-70
2022/08/01 10:08:00;;;;;;;5.63;1.30;;;;;;;;;;5041857;28;20067;-70
2022/08/01 10:10:26;;;;;;;3.67;1.33;;;;;;;;;;5038675;28;20110;-70
2022/08/01 10:12:53;;;;;;;1.30;1.13;;;;;;;;;;5037922;28;20041;-69
2022/08/01 10:15:20;;;;;;;2.35;1.02;;;;;;;;;;5038792;28;20456;-73
2022/08/01 10:18:00;;;;;;;3.15;1.38;;;;;;;;;;5040285;28;20064;-71
2022/08/01 10:20:28;;;;;;;2.00;1.48;;;;;;;;;;5040323;28;20049;-70
2022/08/01 10:22:54;;;;;;;3.38;1.30;;;;;;;;;;5038778;28;20160;-71
2022/08/01 10:25:21;;;;;;;1.73;1.33;;;;;;;;;;5039388;28;20054;-70
2022/08/01 10:27:49;;;;;;;5.97;1.45;;;;;;;;;;5040647;28;20050;-70
2022/08/01 10:30:15;;;;;;;7.03;1.55;;;;;;;;;;5039260;28;20041;-69
2022/08/01 10:32:44;;;;;;;2.13;1.40;;;;;;;;;;5040018;28;20091;-69
2022/08/01 10:35:15;;;;;;;2.28;1.23;;;;;;;;;;5038453;28;20053;-72
2022/08/01 10:37:42;;;;;;;1.75;1.27;;;;;;;;;;5040601;28;20041;-69
2022/08/01 10:40:08;;;;;;;1.77;1.38;;;;;;;;;;5040198;28;20499;-71
2022/08/01 10:42:34;;;;;;;2.45;1.10;;;;;;;;;;5040208;28;20564;-69
2022/08/01 10:45:00;;;;;;;1.30;1.20;;;;;;;;;;5039754;28;20051;-70
2022/08/01 10:47:40;;;;;;;3.92;1.10;;;;;;;;;;5040273;28;20040;-69
2022/08/01 10:50:23;;;;;;;1.88;1.23;;;;;;;;;;5040673;28;20045;-71
2022/08/01 10:53:12;;;;;;;1.63;1.48;;;;;;;;;;5039771;28;20048;-72
2022/08/01 10:55:56;;;;;;;3.95;1.27;;;;;;;;;;5039693;28;20045;-70
2022/08/01 10:58:41;;;;;;;1.67;1.40;;;;;;;;;;5040693;28;21055;-74
2022/08/01 11:01:25;;;;;;;6.20;1.50;;;;;;;;;;5012660;28;20045;-70
2022/08/01 11:03:59;;;;;;;1.60;1.17;;;;;;;;;;5040689;28;20135;-70
2022/08/01 11:06:32;;;;;;;2.03;1.20;;;;;;;;;;5040117;28;20055;-70
2022/08/01 11:08:58;;;;;;;1.30;1.17;;;;;;;;;;5040119;28;20041;-70
2022/08/01 11:11:24;;;;;;;3.40;1.08;;;;;;;;;;5040429;28;20061;-71
2022/08/01 11:13:58;;;;;;;1.73;1.20;;;;;;;;;;5041605;28;20033;-70
2022/08/01 11:16:35;;;;;;;2.05;1.30;;;;;;;;;;5040500;28;20049;-71
2022/08/01 11:19:03;;;;;;;1.70;1.00;;;;;;;;;;5039519;28;20053;-71
2022/08/01 11:21:56;;;;;;;1.17;1.08;;;;;;;;;;5040847;28;20570;-71
2022/08/01 11:24:43;;;;;;;3.20;1.20;;;;;;;;;;5039471;28;20553;-68
2022/08/01 11:27:15;;;;;;;1.90;1.40;;;;;;;;;;5040583;28;20805;-68
2022/08/01 11:29:41;;;;;;;1.33;1.20;;;;;;;;;;5038742;28;20147;-68
2022/08/01 11:32:26;;;;;;;1.85;1.30;;;;;;;;;;5040071;28;20044;-69
2022/08/01 11:34:55;;;;;;;1.17;0.93;;;;;;;;;;5039599;28;20729;-69
2022/08/01 11:37:26;;;;;;;1.08;1.00;;;;;;;;;;5040067;28;20044;-69
2022/08/01 11:40:14;;;;;;;4.53;1.38;;;;;;;;;;5031869;28;20525;-68
2022/08/01 11:42:39;;;;;;;1.60;0.90;;;;;;;;;;5039800;28;20503;-69
2022/08/01 11:45:06;;;;;;;1.40;1.30;;;;;;;;;;5039537;28;20053;-71
2022/08/01 11:47:49;;;;;;;3.75;1.20;;;;;;;;;;5040219;28;20419;-70
2022/08/01 11:50:35;;;;;;;1.20;0.93;;;;;;;;;;5039517;28;20053;-71
2022/08/01 11:53:07;;;;;;;2.58;1.13;;;;;;;;;;5039700;28;20180;-70
2022/08/01 11:55:34;;;;;;;1.65;1.17;;;;;;;;;;5041211;28;20738;-70
2022/08/01 11:58:05;;;;;;;2.00;1.05;;;;;;;;;;5041721;28;20071;-69
2022/08/01 12:00:31;;;;;;;1.33;1.00;;;;;;;;;;5041447;28;20037;-70
2022/08/01 12:03:02;;;;;;;1.20;1.05;;;;;;;;;;5039602;28;20045;-69
2022/08/01 12:05:29;;;;;;;1.85;1.00;;;;;;;;;;5040744;28;20055;-70
2022/08/01 12:07:56;;;;;;;1.30;1.20;;;;;;;;;;5040848;28;20124;-70
2022/08/01 12:10:25;;;;;;;2.03;1.10;;;;;;;;;;5015008;28;20063;-69
2022/08/01 12:12:56;;;;;;;3.03;1.25;;;;;;;;;;5037273;28;20071;-70
2022/08/01 12:15:24;;;;;;;1.30;1.15;;;;;;;;;;5039149;28;20067;-70
2022/08/01 12:17:50;;;;;;;3.67;1.10;;;;;;;;;;5031004;28;20052;-70
2022/08/01 12:20:20;;;;;;;2.05;1.13;;;;;;;;;;5039802;28;20049;-68
2022/08/01 12:22:46;;;;;;;1.33;1.10;;;;;;;;;;5039960;28;20488;-70
2022/08/01 12:25:14;;;;;;;3.08;1.10;;;;;;;;;;5015799;28;20059;-70
2022/08/01 12:27:43;;;;;;;1.23;1.00;;;;;;;;;;4988382;28;20171;-69
2022/08/01 12:30:11;;;;;;;3.13;1.05;;;;;;;;;;5007005;28;20103;-70
2022/08/01 12:32:39;;;;;;;1.25;1.10;;;;;;;;;;5040962;28;20200;-69
2022/08/01 12:35:14;;;;;;;1.42;1.10;;;;;;;;;;5039718;28;20052;-69
2022/08/01 12:37:43;;;;;;;2.00;1.23;;;;;;;;;;5044075;28;20048;-70
2022/08/01 12:40:20;;;;;;;1.23;1.13;;;;;;;;;;5044189;28;20498;-69
2022/08/01 12:42:51;;;;;;;1.67;1.08;;;;;;;;;;5043659;28;20104;-70
2022/08/01 12:45:21;;;;;;;;;;;;;;;;;;5043248;28;20053;-70
2022/08/01 12:47:47;;;;;;;1.02;1.00;;;;;;;;;;5044908;28;19968;-70
2022/08/01 12:50:17;;;;;;;1.08;0.90;;;;;;;;;;5043680;28;20463;-70
2022/08/01 12:52:43;;;;;;;2.85;1.20;;;;;;;;;;5043065;28;20041;-69
2022/08/01 12:55:14;;;;;;;0.88;0.88;;;;;;;;;;5043831;28;20147;-69
2022/08/01 12:57:41;;;;;;;;;;;;;;;;;;5042826;28;20136;-69
2022/08/01 13:00:11;;;;;;;2.80;1.23;;;;;;;;;;5017975;28;20485;-69
2022/08/01 13:02:37;;;;;;;2.88;1.10;;;;;;;;;;5043643;28;20114;-70
2022/08/01 13:05:04;;;;;;;2.33;1.00;;;;;;;;;;5042715;28;20053;-69
2022/08/01 13:07:39;;;;;;;4.22;1.00;;;;;;;;;;5042499;28;20131;-69
2022/08/01 13:10:06;;;;;;;4.18;1.20;;;;;;;;;;5043195;28;20768;-69
2022/08/01 13:12:31;;;;;;;1.23;1.00;;;;;;;;;;5041920;28;20130;-70
2022/08/01 13:14:57;;;;;;;1.00;0.90;;;;;;;;;;5042832;28;20083;-69
2022/08/01 13:17:39;;;;;;;0.80;0.80;;;;;;;;;;5042880;28;20048;-70
2022/08/01 13:20:05;;;;;;;1.60;1.02;;;;;;;;;;5042666;28;20487;-69
2022/08/01 13:22:35;;;;;;;1.50;0.90;;;;;;;;;;5042560;28;20037;-69
2022/08/01 13:25:14;;;;;;;1.30;0.95;;;;;;;;;;5041879;28;20040;-69
2022/08/01 13:27:40;;;;;;;4.75;0.98;;;;;;;;;;5042778;28;20052;-71
2022/08/01 13:30:13;;;;;;;2.30;1.10;;;;;;;;;;5042383;28;20071;-69
2022/08/01 13:32:39;;;;;;;2.92;0.70;;;;;;;;;;5017251;28;20663;-70
2022/08/01 13:35:07;;;;;;;2.35;0.98;;;;;;;;;;5042776;28;20041;-69
2022/08/01 13:37:33;;;;;;;1.48;1.02;;;;;;;;;;5043044;28;20048;-69
2022/08/01 13:39:58;;;;;;;3.78;0.95;;;;;;;;;;5043322;28;20063;-69
2022/08/01 13:42:24;;;;;;;1.65;0.90;;;;;;;;;;5023823;28;20449;-69
2022/08/01 13:44:49;;;;;;;0.77;0.73;;;;;;;;;;5015724;28;20140;-70
2022/08/01 13:47:15;;;;;;;1.15;0.98;;;;;;;;;;5042217;28;20053;-70
2022/08/01 13:49:41;;;;;;;2.05;0.88;;;;;;;;;;5042106;28;20963;-70
2022/08/01 13:52:07;;;;;;;1.05;0.95;;;;;;;;;;5041027;28;20060;-69
2022/08/01 13:54:33;;;;;;;3.08;0.80;;;;;;;;;;5041465;28;20104;-70
2022/08/01 13:56:58;;;;;;;8.07;1.00;;;;;;;;;;5041354;28;20114;-68
2022/08/01 13:59:24;;;;;;;1.35;1.00;;;;;;;;;;5041902;28;20048;-69
2022/08/01 14:01:49;;;;;;;1.88;0.98;;;;;;;;;;5040550;28;20514;-70
2022/08/01 14:04:15;;;;;;;1.40;0.75;;;;;;;;;;5041488;28;20562;-69
2022/08/01 14:06:41;;;;;;;1.88;1.10;;;;;;;;;;5041704;28;20456;-68
2022/08/01 14:09:07;;;;;;;1.08;0.80;;;;;;;;;;5040908;28;20045;-69
2022/08/01 14:11:32;;;;;;;3.95;0.90;;;;;;;;;;5023893;28;20082;-68
2022/08/01 14:13:58;;;;;;;1.23;0.80;;;;;;;;;;5040185;28;20049;-70
2022/08/01 14:16:24;;;;;;;1.27;0.80;;;;;;;;;;5040992;28;20127;-72
2022/08/01 14:18:50;;;;;;;2.38;1.00;;;;;;;;;;5038585;28;20592;-68
2022/08/01 14:21:16;;;;;;;5.05;1.08;;;;;;;;;;5020971;28;20115;-70
2022/08/01 14:23:45;;;;;;;5.18;0.93;;;;;;;;;;5039115;28;20040;-70
2022/08/01 14:26:10;;;;;;;3.95;0.90;;;;;;;;;;5039068;28;20056;-69
2022/08/01 14:28:36;;;;;;;5.97;0.93;;;;;;;;;;5038838;28;20056;-71
2022/08/01 14:31:02;;;;;;;1.02;0.68;;;;;;;;;;5037762;28;20597;-72
2022/08/01 14:33:28;;;;;;;0.77;0.70;;;;;;;;;;5036367;28;20053;-71
2022/08/01 14:35:54;;;;;;;2.30;1.20;;;;;;;;;;5037629;28;20061;-69
2022/08/01 14:38:20;;;;;;;2.65;1.10;;;;;;;;;;5036264;28;20037;-70
2022/08/01 14:40:51;;;;;;;1.42;0.93;;;;;;;;;;5037735;28;20395;-69
2022/08/01 14:43:20;;;;;;;1.25;1.00;;;;;;;;;;5039322;28;20056;-71
2022/08/01 14:45:49;;;;;;;7.85;0.95;;;;;;;;;;5040034;28;20068;-69
2022/08/01 14:48:15;;;;;;;0.90;0.85;;;;;;;;;;5039602;28;20110;-71
2022/08/01 14:50:40;;;;;;;3.47;0.95;;;;;;;;;;5039529;28;20419;-69